<?xml version="1.0" encoding="UTF-8" standalone="no" ?>
<gpx xmlns="http://www.topografix.com/GPX/1/1" xmlns:xsi="http://www.w3.org/2001/XMLSchema-instance" xsi:schemaLocation="http://www.topografix.com/GPX/1/1 http://www.topografix.com/GPX/1/1/gpx.xsd" version="1.1" creator="VisuGPX - https://www.visugpx.com">
  <metadata>
    <name>randonnéemarignac</name>
  </metadata>
  <trk>
    <name><![CDATA[randonnéemarignac_1]]></name>
    <trkseg>
      <trkpt lat="45.52149" lon="-0.47625">
        <ele>56</ele>
        <time>2019-08-26T08:13:37+02:00</time>
      </trkpt>
      <trkpt lat="45.52154" lon="-0.47637">
        <ele>57</ele>
        <time>2019-08-26T08:13:42+02:00</time>
      </trkpt>
      <trkpt lat="45.52136" lon="-0.47647">
        <ele>57</ele>
        <time>2019-08-26T08:13:47+02:00</time>
      </trkpt>
      <trkpt lat="45.52142" lon="-0.47658">
        <ele>58</ele>
        <time>2019-08-26T08:13:52+02:00</time>
      </trkpt>
      <trkpt lat="45.52155" lon="-0.4771">
        <ele>61</ele>
        <time>2019-08-26T08:13:57+02:00</time>
      </trkpt>
      <trkpt lat="45.52181" lon="-0.47704">
        <ele>61</ele>
        <time>2019-08-26T08:14:02+02:00</time>
      </trkpt>
      <trkpt lat="45.52192" lon="-0.47707">
        <ele>61</ele>
        <time>2019-08-26T08:14:07+02:00</time>
      </trkpt>
      <trkpt lat="45.52204" lon="-0.47722">
        <ele>62</ele>
        <time>2019-08-26T08:14:12+02:00</time>
      </trkpt>
      <trkpt lat="45.52214" lon="-0.47747">
        <ele>64</ele>
        <time>2019-08-26T08:14:17+02:00</time>
      </trkpt>
      <trkpt lat="45.52219" lon="-0.4778">
        <ele>65</ele>
        <time>2019-08-26T08:14:22+02:00</time>
      </trkpt>
      <trkpt lat="45.52224" lon="-0.47819">
        <ele>67</ele>
        <time>2019-08-26T08:14:27+02:00</time>
      </trkpt>
      <trkpt lat="45.52245" lon="-0.47872">
        <ele>68</ele>
        <time>2019-08-26T08:14:32+02:00</time>
      </trkpt>
      <trkpt lat="45.52243" lon="-0.47901">
        <ele>69</ele>
        <time>2019-08-26T08:14:37+02:00</time>
      </trkpt>
      <trkpt lat="45.52263" lon="-0.47982">
        <ele>71</ele>
        <time>2019-08-26T08:14:42+02:00</time>
      </trkpt>
      <trkpt lat="45.52277" lon="-0.4801">
        <ele>71</ele>
        <time>2019-08-26T08:14:47+02:00</time>
      </trkpt>
      <trkpt lat="45.52298" lon="-0.48038">
        <ele>71</ele>
        <time>2019-08-26T08:14:52+02:00</time>
      </trkpt>
      <trkpt lat="45.52318" lon="-0.48075">
        <ele>70</ele>
        <time>2019-08-26T08:14:57+02:00</time>
      </trkpt>
      <trkpt lat="45.52336" lon="-0.48114">
        <ele>69</ele>
        <time>2019-08-26T08:15:02+02:00</time>
      </trkpt>
      <trkpt lat="45.5235" lon="-0.48153">
        <ele>69</ele>
        <time>2019-08-26T08:15:07+02:00</time>
      </trkpt>
      <trkpt lat="45.52362" lon="-0.48226">
        <ele>68</ele>
        <time>2019-08-26T08:15:12+02:00</time>
      </trkpt>
      <trkpt lat="45.52373" lon="-0.48261">
        <ele>67</ele>
        <time>2019-08-26T08:15:17+02:00</time>
      </trkpt>
      <trkpt lat="45.52416" lon="-0.48375">
        <ele>67</ele>
        <time>2019-08-26T08:15:22+02:00</time>
      </trkpt>
      <trkpt lat="45.52427" lon="-0.48399">
        <ele>68</ele>
        <time>2019-08-26T08:15:27+02:00</time>
      </trkpt>
      <trkpt lat="45.52432" lon="-0.48419">
        <ele>69</ele>
        <time>2019-08-26T08:15:32+02:00</time>
      </trkpt>
      <trkpt lat="45.52447" lon="-0.48443">
        <ele>70</ele>
        <time>2019-08-26T08:15:37+02:00</time>
      </trkpt>
      <trkpt lat="45.5248" lon="-0.48487">
        <ele>73</ele>
        <time>2019-08-26T08:15:42+02:00</time>
      </trkpt>
      <trkpt lat="45.52575" lon="-0.48624">
        <ele>80</ele>
        <time>2019-08-26T08:15:47+02:00</time>
      </trkpt>
      <trkpt lat="45.52636" lon="-0.48743">
        <ele>79</ele>
        <time>2019-08-26T08:15:52+02:00</time>
      </trkpt>
      <trkpt lat="45.52637" lon="-0.48765">
        <ele>80</ele>
        <time>2019-08-26T08:15:57+02:00</time>
      </trkpt>
      <trkpt lat="45.52642" lon="-0.48786">
        <ele>80</ele>
        <time>2019-08-26T08:16:02+02:00</time>
      </trkpt>
      <trkpt lat="45.52684" lon="-0.48869">
        <ele>80</ele>
        <time>2019-08-26T08:16:07+02:00</time>
      </trkpt>
      <trkpt lat="45.52743" lon="-0.49017">
        <ele>79</ele>
        <time>2019-08-26T08:16:12+02:00</time>
      </trkpt>
      <trkpt lat="45.52761" lon="-0.49056">
        <ele>79</ele>
        <time>2019-08-26T08:16:17+02:00</time>
      </trkpt>
      <trkpt lat="45.52788" lon="-0.491">
        <ele>79</ele>
        <time>2019-08-26T08:16:22+02:00</time>
      </trkpt>
      <trkpt lat="45.52821" lon="-0.4917">
        <ele>79</ele>
        <time>2019-08-26T08:16:27+02:00</time>
      </trkpt>
      <trkpt lat="45.52852" lon="-0.49266">
        <ele>76</ele>
        <time>2019-08-26T08:16:32+02:00</time>
      </trkpt>
      <trkpt lat="45.529" lon="-0.49334">
        <ele>76</ele>
        <time>2019-08-26T08:16:37+02:00</time>
      </trkpt>
      <trkpt lat="45.52952" lon="-0.49432">
        <ele>74</ele>
        <time>2019-08-26T08:16:42+02:00</time>
      </trkpt>
      <trkpt lat="45.52992" lon="-0.49518">
        <ele>74</ele>
        <time>2019-08-26T08:16:47+02:00</time>
      </trkpt>
      <trkpt lat="45.53006" lon="-0.49541">
        <ele>73</ele>
        <time>2019-08-26T08:16:52+02:00</time>
      </trkpt>
      <trkpt lat="45.52985" lon="-0.49577">
        <ele>73</ele>
        <time>2019-08-26T08:16:57+02:00</time>
      </trkpt>
      <trkpt lat="45.52882" lon="-0.49677">
        <ele>67</ele>
        <time>2019-08-26T08:17:02+02:00</time>
      </trkpt>
      <trkpt lat="45.52848" lon="-0.49739">
        <ele>63</ele>
        <time>2019-08-26T08:17:07+02:00</time>
      </trkpt>
      <trkpt lat="45.52789" lon="-0.49885">
        <ele>50</ele>
        <time>2019-08-26T08:17:12+02:00</time>
      </trkpt>
      <trkpt lat="45.52766" lon="-0.49939">
        <ele>46</ele>
        <time>2019-08-26T08:17:17+02:00</time>
      </trkpt>
      <trkpt lat="45.52752" lon="-0.49962">
        <ele>44</ele>
        <time>2019-08-26T08:17:22+02:00</time>
      </trkpt>
      <trkpt lat="45.52715" lon="-0.49997">
        <ele>41</ele>
        <time>2019-08-26T08:17:27+02:00</time>
      </trkpt>
      <trkpt lat="45.52699" lon="-0.50021">
        <ele>40</ele>
        <time>2019-08-26T08:17:32+02:00</time>
      </trkpt>
      <trkpt lat="45.52681" lon="-0.50045">
        <ele>39</ele>
        <time>2019-08-26T08:17:37+02:00</time>
      </trkpt>
      <trkpt lat="45.52683" lon="-0.50055">
        <ele>39</ele>
        <time>2019-08-26T08:17:42+02:00</time>
      </trkpt>
      <trkpt lat="45.52654" lon="-0.50077">
        <ele>38</ele>
        <time>2019-08-26T08:17:47+02:00</time>
      </trkpt>
      <trkpt lat="45.52594" lon="-0.50123">
        <ele>35</ele>
        <time>2019-08-26T08:17:52+02:00</time>
      </trkpt>
      <trkpt lat="45.52527" lon="-0.50187">
        <ele>40</ele>
        <time>2019-08-26T08:17:57+02:00</time>
      </trkpt>
      <trkpt lat="45.52494" lon="-0.50215">
        <ele>44</ele>
        <time>2019-08-26T08:18:02+02:00</time>
      </trkpt>
      <trkpt lat="45.52461" lon="-0.50257">
        <ele>47</ele>
        <time>2019-08-26T08:18:07+02:00</time>
      </trkpt>
      <trkpt lat="45.52434" lon="-0.50274">
        <ele>48</ele>
        <time>2019-08-26T08:18:12+02:00</time>
      </trkpt>
      <trkpt lat="45.52406" lon="-0.50279">
        <ele>50</ele>
        <time>2019-08-26T08:18:17+02:00</time>
      </trkpt>
      <trkpt lat="45.52352" lon="-0.50276">
        <ele>52</ele>
        <time>2019-08-26T08:18:22+02:00</time>
      </trkpt>
      <trkpt lat="45.52289" lon="-0.50282">
        <ele>55</ele>
        <time>2019-08-26T08:18:27+02:00</time>
      </trkpt>
      <trkpt lat="45.52297" lon="-0.5031">
        <ele>54</ele>
        <time>2019-08-26T08:18:32+02:00</time>
      </trkpt>
      <trkpt lat="45.52309" lon="-0.5034">
        <ele>52</ele>
        <time>2019-08-26T08:18:37+02:00</time>
      </trkpt>
      <trkpt lat="45.52325" lon="-0.50358">
        <ele>52</ele>
        <time>2019-08-26T08:18:42+02:00</time>
      </trkpt>
      <trkpt lat="45.52339" lon="-0.50367">
        <ele>51</ele>
        <time>2019-08-26T08:18:47+02:00</time>
      </trkpt>
      <trkpt lat="45.52375" lon="-0.50375">
        <ele>50</ele>
        <time>2019-08-26T08:18:52+02:00</time>
      </trkpt>
      <trkpt lat="45.52425" lon="-0.50366">
        <ele>48</ele>
        <time>2019-08-26T08:18:57+02:00</time>
      </trkpt>
      <trkpt lat="45.52458" lon="-0.5036">
        <ele>47</ele>
        <time>2019-08-26T08:19:02+02:00</time>
      </trkpt>
      <trkpt lat="45.52511" lon="-0.50349">
        <ele>46</ele>
        <time>2019-08-26T08:19:07+02:00</time>
      </trkpt>
      <trkpt lat="45.52462" lon="-0.50763">
        <ele>37</ele>
        <time>2019-08-26T08:19:12+02:00</time>
      </trkpt>
      <trkpt lat="45.52509" lon="-0.50351">
        <ele>46</ele>
        <time>2019-08-26T08:19:17+02:00</time>
      </trkpt>
      <trkpt lat="45.52461" lon="-0.5036">
        <ele>47</ele>
        <time>2019-08-26T08:19:22+02:00</time>
      </trkpt>
      <trkpt lat="45.52426" lon="-0.50364">
        <ele>48</ele>
        <time>2019-08-26T08:19:27+02:00</time>
      </trkpt>
      <trkpt lat="45.52378" lon="-0.50374">
        <ele>50</ele>
        <time>2019-08-26T08:19:32+02:00</time>
      </trkpt>
      <trkpt lat="45.5234" lon="-0.50368">
        <ele>51</ele>
        <time>2019-08-26T08:19:37+02:00</time>
      </trkpt>
      <trkpt lat="45.52328" lon="-0.50357">
        <ele>52</ele>
        <time>2019-08-26T08:19:42+02:00</time>
      </trkpt>
      <trkpt lat="45.5231" lon="-0.50341">
        <ele>52</ele>
        <time>2019-08-26T08:19:47+02:00</time>
      </trkpt>
      <trkpt lat="45.52297" lon="-0.50312">
        <ele>54</ele>
        <time>2019-08-26T08:19:52+02:00</time>
      </trkpt>
      <trkpt lat="45.5229" lon="-0.50283">
        <ele>55</ele>
        <time>2019-08-26T08:19:57+02:00</time>
      </trkpt>
      <trkpt lat="45.52272" lon="-0.50286">
        <ele>55</ele>
        <time>2019-08-26T08:20:02+02:00</time>
      </trkpt>
      <trkpt lat="45.52242" lon="-0.50297">
        <ele>56</ele>
        <time>2019-08-26T08:20:07+02:00</time>
      </trkpt>
      <trkpt lat="45.52206" lon="-0.50315">
        <ele>54</ele>
        <time>2019-08-26T08:20:12+02:00</time>
      </trkpt>
      <trkpt lat="45.52162" lon="-0.50326">
        <ele>53</ele>
        <time>2019-08-26T08:20:17+02:00</time>
      </trkpt>
      <trkpt lat="45.52103" lon="-0.50319">
        <ele>51</ele>
        <time>2019-08-26T08:20:22+02:00</time>
      </trkpt>
      <trkpt lat="45.5201" lon="-0.50296">
        <ele>47</ele>
        <time>2019-08-26T08:20:27+02:00</time>
      </trkpt>
      <trkpt lat="45.51915" lon="-0.50229">
        <ele>50</ele>
        <time>2019-08-26T08:20:32+02:00</time>
      </trkpt>
      <trkpt lat="45.51854" lon="-0.5022">
        <ele>51</ele>
        <time>2019-08-26T08:20:37+02:00</time>
      </trkpt>
      <trkpt lat="45.51805" lon="-0.50218">
        <ele>51</ele>
        <time>2019-08-26T08:20:42+02:00</time>
      </trkpt>
      <trkpt lat="45.51722" lon="-0.50202">
        <ele>51</ele>
        <time>2019-08-26T08:20:47+02:00</time>
      </trkpt>
      <trkpt lat="45.51655" lon="-0.50174">
        <ele>51</ele>
        <time>2019-08-26T08:20:52+02:00</time>
      </trkpt>
      <trkpt lat="45.51556" lon="-0.50134">
        <ele>50</ele>
        <time>2019-08-26T08:20:57+02:00</time>
      </trkpt>
      <trkpt lat="45.51527" lon="-0.50128">
        <ele>50</ele>
        <time>2019-08-26T08:21:02+02:00</time>
      </trkpt>
      <trkpt lat="45.51491" lon="-0.50146">
        <ele>49</ele>
        <time>2019-08-26T08:21:07+02:00</time>
      </trkpt>
      <trkpt lat="45.5146" lon="-0.50185">
        <ele>47</ele>
        <time>2019-08-26T08:21:12+02:00</time>
      </trkpt>
      <trkpt lat="45.51439" lon="-0.50219">
        <ele>46</ele>
        <time>2019-08-26T08:21:17+02:00</time>
      </trkpt>
      <trkpt lat="45.51373" lon="-0.50174">
        <ele>50</ele>
        <time>2019-08-26T08:21:22+02:00</time>
      </trkpt>
      <trkpt lat="45.51354" lon="-0.5017">
        <ele>51</ele>
        <time>2019-08-26T08:21:27+02:00</time>
      </trkpt>
      <trkpt lat="45.51326" lon="-0.5017">
        <ele>52</ele>
        <time>2019-08-26T08:21:32+02:00</time>
      </trkpt>
      <trkpt lat="45.51216" lon="-0.50148">
        <ele>57</ele>
        <time>2019-08-26T08:21:37+02:00</time>
      </trkpt>
      <trkpt lat="45.51189" lon="-0.50099">
        <ele>59</ele>
        <time>2019-08-26T08:21:42+02:00</time>
      </trkpt>
      <trkpt lat="45.5115" lon="-0.50031">
        <ele>61</ele>
        <time>2019-08-26T08:21:47+02:00</time>
      </trkpt>
      <trkpt lat="45.51085" lon="-0.49944">
        <ele>59</ele>
        <time>2019-08-26T08:21:52+02:00</time>
      </trkpt>
      <trkpt lat="45.5107" lon="-0.49929">
        <ele>59</ele>
        <time>2019-08-26T08:21:57+02:00</time>
      </trkpt>
      <trkpt lat="45.5104" lon="-0.49882">
        <ele>59</ele>
        <time>2019-08-26T08:22:02+02:00</time>
      </trkpt>
      <trkpt lat="45.51016" lon="-0.49854">
        <ele>59</ele>
        <time>2019-08-26T08:22:07+02:00</time>
      </trkpt>
      <trkpt lat="45.5098" lon="-0.49817">
        <ele>58</ele>
        <time>2019-08-26T08:22:12+02:00</time>
      </trkpt>
      <trkpt lat="45.50952" lon="-0.49759">
        <ele>56</ele>
        <time>2019-08-26T08:22:17+02:00</time>
      </trkpt>
      <trkpt lat="45.50935" lon="-0.4973">
        <ele>55</ele>
        <time>2019-08-26T08:22:22+02:00</time>
      </trkpt>
      <trkpt lat="45.50921" lon="-0.49694">
        <ele>54</ele>
        <time>2019-08-26T08:22:27+02:00</time>
      </trkpt>
      <trkpt lat="45.5091" lon="-0.49649">
        <ele>54</ele>
        <time>2019-08-26T08:22:32+02:00</time>
      </trkpt>
      <trkpt lat="45.5091" lon="-0.49622">
        <ele>55</ele>
        <time>2019-08-26T08:22:37+02:00</time>
      </trkpt>
      <trkpt lat="45.50924" lon="-0.49586">
        <ele>57</ele>
        <time>2019-08-26T08:22:42+02:00</time>
      </trkpt>
      <trkpt lat="45.50933" lon="-0.49561">
        <ele>57</ele>
        <time>2019-08-26T08:22:47+02:00</time>
      </trkpt>
      <trkpt lat="45.50947" lon="-0.49519">
        <ele>59</ele>
        <time>2019-08-26T08:22:52+02:00</time>
      </trkpt>
      <trkpt lat="45.50952" lon="-0.49495">
        <ele>59</ele>
        <time>2019-08-26T08:22:57+02:00</time>
      </trkpt>
      <trkpt lat="45.50959" lon="-0.49479">
        <ele>60</ele>
        <time>2019-08-26T08:23:02+02:00</time>
      </trkpt>
      <trkpt lat="45.51047" lon="-0.49372">
        <ele>67</ele>
        <time>2019-08-26T08:23:07+02:00</time>
      </trkpt>
      <trkpt lat="45.51068" lon="-0.49351">
        <ele>69</ele>
        <time>2019-08-26T08:23:12+02:00</time>
      </trkpt>
      <trkpt lat="45.51179" lon="-0.49275">
        <ele>71</ele>
        <time>2019-08-26T08:23:17+02:00</time>
      </trkpt>
      <trkpt lat="45.51226" lon="-0.49221">
        <ele>70</ele>
        <time>2019-08-26T08:23:22+02:00</time>
      </trkpt>
      <trkpt lat="45.51282" lon="-0.49173">
        <ele>68</ele>
        <time>2019-08-26T08:23:27+02:00</time>
      </trkpt>
      <trkpt lat="45.51282" lon="-0.49167">
        <ele>68</ele>
        <time>2019-08-26T08:23:32+02:00</time>
      </trkpt>
      <trkpt lat="45.51315" lon="-0.4912">
        <ele>67</ele>
        <time>2019-08-26T08:23:37+02:00</time>
      </trkpt>
      <trkpt lat="45.51346" lon="-0.491">
        <ele>66</ele>
        <time>2019-08-26T08:23:42+02:00</time>
      </trkpt>
      <trkpt lat="45.51412" lon="-0.4907">
        <ele>62</ele>
        <time>2019-08-26T08:23:47+02:00</time>
      </trkpt>
      <trkpt lat="45.51422" lon="-0.49037">
        <ele>61</ele>
        <time>2019-08-26T08:23:52+02:00</time>
      </trkpt>
      <trkpt lat="45.51436" lon="-0.48982">
        <ele>58</ele>
        <time>2019-08-26T08:23:57+02:00</time>
      </trkpt>
      <trkpt lat="45.51455" lon="-0.4892">
        <ele>55</ele>
        <time>2019-08-26T08:24:02+02:00</time>
      </trkpt>
      <trkpt lat="45.51467" lon="-0.48877">
        <ele>53</ele>
        <time>2019-08-26T08:24:07+02:00</time>
      </trkpt>
      <trkpt lat="45.51486" lon="-0.48837">
        <ele>50</ele>
        <time>2019-08-26T08:24:12+02:00</time>
      </trkpt>
      <trkpt lat="45.5152" lon="-0.48795">
        <ele>49</ele>
        <time>2019-08-26T08:24:17+02:00</time>
      </trkpt>
      <trkpt lat="45.51499" lon="-0.48764">
        <ele>48</ele>
        <time>2019-08-26T08:24:22+02:00</time>
      </trkpt>
      <trkpt lat="45.51467" lon="-0.48721">
        <ele>50</ele>
        <time>2019-08-26T08:24:27+02:00</time>
      </trkpt>
      <trkpt lat="45.51414" lon="-0.48681">
        <ele>50</ele>
        <time>2019-08-26T08:24:32+02:00</time>
      </trkpt>
      <trkpt lat="45.51395" lon="-0.48677">
        <ele>50</ele>
        <time>2019-08-26T08:24:37+02:00</time>
      </trkpt>
      <trkpt lat="45.51374" lon="-0.48667">
        <ele>49</ele>
        <time>2019-08-26T08:24:42+02:00</time>
      </trkpt>
      <trkpt lat="45.51349" lon="-0.48654">
        <ele>48</ele>
        <time>2019-08-26T08:24:47+02:00</time>
      </trkpt>
      <trkpt lat="45.51326" lon="-0.48642">
        <ele>48</ele>
        <time>2019-08-26T08:24:52+02:00</time>
      </trkpt>
      <trkpt lat="45.51304" lon="-0.4863">
        <ele>48</ele>
        <time>2019-08-26T08:24:57+02:00</time>
      </trkpt>
      <trkpt lat="45.51276" lon="-0.48611">
        <ele>48</ele>
        <time>2019-08-26T08:25:02+02:00</time>
      </trkpt>
      <trkpt lat="45.51251" lon="-0.48585">
        <ele>48</ele>
        <time>2019-08-26T08:25:07+02:00</time>
      </trkpt>
      <trkpt lat="45.51241" lon="-0.48566">
        <ele>48</ele>
        <time>2019-08-26T08:25:12+02:00</time>
      </trkpt>
      <trkpt lat="45.51276" lon="-0.48502">
        <ele>49</ele>
        <time>2019-08-26T08:25:17+02:00</time>
      </trkpt>
      <trkpt lat="45.51304" lon="-0.48464">
        <ele>51</ele>
        <time>2019-08-26T08:25:22+02:00</time>
      </trkpt>
      <trkpt lat="45.51332" lon="-0.48436">
        <ele>53</ele>
        <time>2019-08-26T08:25:27+02:00</time>
      </trkpt>
      <trkpt lat="45.51365" lon="-0.48422">
        <ele>56</ele>
        <time>2019-08-26T08:25:32+02:00</time>
      </trkpt>
      <trkpt lat="45.51403" lon="-0.48408">
        <ele>59</ele>
        <time>2019-08-26T08:25:37+02:00</time>
      </trkpt>
      <trkpt lat="45.51469" lon="-0.48386">
        <ele>61</ele>
        <time>2019-08-26T08:25:42+02:00</time>
      </trkpt>
      <trkpt lat="45.51529" lon="-0.48395">
        <ele>62</ele>
        <time>2019-08-26T08:25:47+02:00</time>
      </trkpt>
      <trkpt lat="45.51585" lon="-0.48378">
        <ele>63</ele>
        <time>2019-08-26T08:25:52+02:00</time>
      </trkpt>
      <trkpt lat="45.51663" lon="-0.48308">
        <ele>67</ele>
        <time>2019-08-26T08:25:57+02:00</time>
      </trkpt>
      <trkpt lat="45.51682" lon="-0.48293">
        <ele>67</ele>
        <time>2019-08-26T08:26:02+02:00</time>
      </trkpt>
      <trkpt lat="45.51705" lon="-0.48284">
        <ele>67</ele>
        <time>2019-08-26T08:26:07+02:00</time>
      </trkpt>
      <trkpt lat="45.5174" lon="-0.48284">
        <ele>67</ele>
        <time>2019-08-26T08:26:12+02:00</time>
      </trkpt>
      <trkpt lat="45.51782" lon="-0.48309">
        <ele>67</ele>
        <time>2019-08-26T08:26:17+02:00</time>
      </trkpt>
      <trkpt lat="45.51761" lon="-0.48295">
        <ele>67</ele>
        <time>2019-08-26T08:26:22+02:00</time>
      </trkpt>
      <trkpt lat="45.51823" lon="-0.48342">
        <ele>67</ele>
        <time>2019-08-26T08:26:27+02:00</time>
      </trkpt>
      <trkpt lat="45.51831" lon="-0.48322">
        <ele>67</ele>
        <time>2019-08-26T08:26:32+02:00</time>
      </trkpt>
      <trkpt lat="45.5187" lon="-0.48198">
        <ele>70</ele>
        <time>2019-08-26T08:26:37+02:00</time>
      </trkpt>
      <trkpt lat="45.51877" lon="-0.48161">
        <ele>71</ele>
        <time>2019-08-26T08:26:42+02:00</time>
      </trkpt>
      <trkpt lat="45.51883" lon="-0.48129">
        <ele>71</ele>
        <time>2019-08-26T08:26:47+02:00</time>
      </trkpt>
      <trkpt lat="45.51902" lon="-0.48115">
        <ele>71</ele>
        <time>2019-08-26T08:26:52+02:00</time>
      </trkpt>
      <trkpt lat="45.51931" lon="-0.48097">
        <ele>72</ele>
        <time>2019-08-26T08:26:57+02:00</time>
      </trkpt>
      <trkpt lat="45.51961" lon="-0.48075">
        <ele>72</ele>
        <time>2019-08-26T08:27:02+02:00</time>
      </trkpt>
      <trkpt lat="45.52" lon="-0.48063">
        <ele>73</ele>
        <time>2019-08-26T08:27:07+02:00</time>
      </trkpt>
      <trkpt lat="45.52007" lon="-0.48051">
        <ele>72</ele>
        <time>2019-08-26T08:27:12+02:00</time>
      </trkpt>
      <trkpt lat="45.52006" lon="-0.48025">
        <ele>71</ele>
        <time>2019-08-26T08:27:17+02:00</time>
      </trkpt>
      <trkpt lat="45.52109" lon="-0.47951">
        <ele>68</ele>
        <time>2019-08-26T08:27:22+02:00</time>
      </trkpt>
      <trkpt lat="45.52119" lon="-0.47937">
        <ele>67</ele>
        <time>2019-08-26T08:27:27+02:00</time>
      </trkpt>
      <trkpt lat="45.52129" lon="-0.47925">
        <ele>67</ele>
        <time>2019-08-26T08:27:32+02:00</time>
      </trkpt>
      <trkpt lat="45.52137" lon="-0.47929">
        <ele>68</ele>
        <time>2019-08-26T08:27:37+02:00</time>
      </trkpt>
      <trkpt lat="45.52143" lon="-0.47935">
        <ele>68</ele>
        <time>2019-08-26T08:27:42+02:00</time>
      </trkpt>
      <trkpt lat="45.52153" lon="-0.47931">
        <ele>68</ele>
        <time>2019-08-26T08:27:47+02:00</time>
      </trkpt>
      <trkpt lat="45.52149" lon="-0.47899">
        <ele>67</ele>
        <time>2019-08-26T08:27:52+02:00</time>
      </trkpt>
      <trkpt lat="45.52134" lon="-0.47814">
        <ele>63</ele>
        <time>2019-08-26T08:27:57+02:00</time>
      </trkpt>
      <trkpt lat="45.52132" lon="-0.47794">
        <ele>62</ele>
        <time>2019-08-26T08:28:02+02:00</time>
      </trkpt>
      <trkpt lat="45.52136" lon="-0.47777">
        <ele>62</ele>
        <time>2019-08-26T08:28:07+02:00</time>
      </trkpt>
      <trkpt lat="45.5214" lon="-0.47759">
        <ele>62</ele>
        <time>2019-08-26T08:28:12+02:00</time>
      </trkpt>
      <trkpt lat="45.5215" lon="-0.47738">
        <ele>61</ele>
        <time>2019-08-26T08:28:17+02:00</time>
      </trkpt>
      <trkpt lat="45.52156" lon="-0.47712">
        <ele>61</ele>
        <time>2019-08-26T08:28:22+02:00</time>
      </trkpt>
      <trkpt lat="45.52143" lon="-0.47659">
        <ele>58</ele>
        <time>2019-08-26T08:28:27+02:00</time>
      </trkpt>
      <trkpt lat="45.52137" lon="-0.47645">
        <ele>57</ele>
        <time>2019-08-26T08:28:32+02:00</time>
      </trkpt>
      <trkpt lat="45.52153" lon="-0.47639">
        <ele>57</ele>
        <time>2019-08-26T08:28:37+02:00</time>
      </trkpt>
      <trkpt lat="45.52148" lon="-0.47626">
        <ele>56</ele>
        <time>2019-08-26T08:28:42+02:00</time>
      </trkpt>
    </trkseg>
  </trk>
</gpx>